createdAt,value
2023-05-20T00:03:52.845Z,54.68
2023-05-20T00:09:01.032Z,54.57
2023-05-20T00:14:08.676Z,54.67
2023-05-20T00:19:16.153Z,54.76
2023-05-20T00:24:23.996Z,54.72
2023-05-20T00:29:31.309Z,54.84
2023-05-20T00:34:39.595Z,55.20
2023-05-20T00:39:47.194Z,55.41
2023-05-20T00:44:55.908Z,55.62
2023-05-20T00:50:05.493Z,55.87
2023-05-20T00:55:16.403Z,55.97
2023-05-20T01:00:25.161Z,56.14
2023-05-20T01:05:36.409Z,56.13
2023-05-20T01:10:49.517Z,56.34
2023-05-20T01:15:59.075Z,56.33
2023-05-20T01:21:10.353Z,56.39
2023-05-20T01:26:19.215Z,56.34
2023-05-20T01:31:29.323Z,56.03
2023-05-20T01:36:37.900Z,56.28
2023-05-20T01:41:46.232Z,56.05
2023-05-20T01:46:55.866Z,56.19
2023-05-20T01:52:03.863Z,55.87
2023-05-20T01:57:11.427Z,55.89
2023-05-20T02:02:19.593Z,55.86
2023-05-20T02:07:27.373Z,56.00
2023-05-20T02:12:34.933Z,56.10
2023-05-20T02:17:44.042Z,56.18
2023-05-20T02:22:51.386Z,56.20
2023-05-20T02:27:58.988Z,56.37
2023-05-20T02:33:10.157Z,56.42
2023-05-20T02:38:17.590Z,56.31
2023-05-20T02:43:25.233Z,56.18
2023-05-20T02:48:33.652Z,56.22
2023-05-20T02:53:41.277Z,56.08
2023-05-20T02:58:48.894Z,55.87
2023-05-20T03:03:56.700Z,56.03
2023-05-20T03:09:04.227Z,55.85
2023-05-20T03:14:11.670Z,56.14
2023-05-20T03:19:19.411Z,56.33
2023-05-20T03:24:26.910Z,56.46
2023-05-20T03:29:34.291Z,56.40
2023-05-20T03:34:41.786Z,56.46
2023-05-20T03:39:49.338Z,56.86
2023-05-20T03:44:57.022Z,56.90
2023-05-20T03:50:06.996Z,56.73
2023-05-20T03:55:15.836Z,56.68
2023-05-20T04:00:23.863Z,56.58
2023-05-20T04:05:31.743Z,56.77
2023-05-20T04:10:42.464Z,56.72
2023-05-20T04:15:52.174Z,56.49
2023-05-20T04:21:02.364Z,56.67
2023-05-20T04:26:10.348Z,56.53
2023-05-20T04:31:19.162Z,56.54
2023-05-20T04:36:29.064Z,56.57
2023-05-20T04:41:38.064Z,56.40
2023-05-20T04:46:46.546Z,56.46
2023-05-20T04:51:55.941Z,55.91
2023-05-20T04:57:03.379Z,55.67
2023-05-20T05:02:10.945Z,55.53
2023-05-20T05:07:19.238Z,55.56
2023-05-20T05:12:26.985Z,55.34
2023-05-20T05:17:34.927Z,55.19
2023-05-20T05:22:42.662Z,55.21
2023-05-20T05:27:50.899Z,55.02
2023-05-20T05:32:59.042Z,54.79
2023-05-20T05:38:06.908Z,54.35
2023-05-20T05:43:15.263Z,54.12
2023-05-20T05:48:23.570Z,53.86
2023-05-20T05:53:32.595Z,53.00
2023-05-20T05:58:40.424Z,52.62
2023-05-20T06:03:49.071Z,52.18
2023-05-20T06:08:58.272Z,51.80
2023-05-20T06:14:07.154Z,51.30
2023-05-20T06:19:14.900Z,50.96
2023-05-20T06:24:24.470Z,50.47
2023-05-20T06:29:32.902Z,50.18
2023-05-20T06:34:40.439Z,50.03
2023-05-20T06:39:54.441Z,49.84
2023-05-20T06:45:03.476Z,49.42
2023-05-20T06:50:34.428Z,49.21
2023-05-20T06:55:43.381Z,49.14
2023-05-20T07:00:52.674Z,48.52
2023-05-20T07:06:00.903Z,48.35
2023-05-20T07:11:09.618Z,48.14
2023-05-20T07:16:17.460Z,48.29
2023-05-20T07:21:30.965Z,48.19
2023-05-20T07:26:55.730Z,48.15
2023-05-20T07:32:04.409Z,48.27
2023-05-20T07:37:13.230Z,48.30
2023-05-20T07:42:23.550Z,48.47
2023-05-20T07:47:38.106Z,48.36
2023-05-20T07:52:55.929Z,48.15
2023-05-20T07:58:06.310Z,48.04
2023-05-20T08:03:16.526Z,48.20
2023-05-20T08:08:43.605Z,48.45
2023-05-20T08:13:59.745Z,48.61
2023-05-20T08:19:09.550Z,48.59
2023-05-20T08:24:17.960Z,48.24
2023-05-20T08:29:26.139Z,48.22
2023-05-20T08:34:34.472Z,48.17
2023-05-20T08:39:42.604Z,48.10
2023-05-20T08:44:52.028Z,47.91
2023-05-20T08:49:59.905Z,48.06
2023-05-20T08:55:11.856Z,47.97
2023-05-20T09:00:20.980Z,47.65
2023-05-20T09:05:29.130Z,47.51
2023-05-20T09:10:37.677Z,47.46
2023-05-20T09:15:45.459Z,47.06
2023-05-20T09:20:54.655Z,47.13
2023-05-20T09:26:04.383Z,47.06
2023-05-20T09:31:12.523Z,46.92
2023-05-20T09:36:21.968Z,46.82
2023-05-20T09:41:35.981Z,46.58
2023-05-20T09:46:44.638Z,46.59
2023-05-20T09:51:53.129Z,46.26
2023-05-20T09:57:02.013Z,46.20
2023-05-20T10:02:10.782Z,46.00
2023-05-20T10:07:41.899Z,45.92
2023-05-20T10:13:02.360Z,45.64
2023-05-20T10:18:21.038Z,45.28
2023-05-20T10:23:31.630Z,44.98
2023-05-20T10:28:42.011Z,44.90
2023-05-20T10:33:50.641Z,45.05
2023-05-20T10:38:59.778Z,45.03
2023-05-20T10:44:08.950Z,44.61
2023-05-20T10:49:27.151Z,44.72
2023-05-20T10:54:45.964Z,44.36
2023-05-20T10:59:54.805Z,44.35
2023-05-20T11:05:02.428Z,44.21
2023-05-20T11:10:12.425Z,44.06
2023-05-20T11:15:20.472Z,44.26
2023-05-20T11:20:28.976Z,44.05
2023-05-20T11:25:37.597Z,44.18
2023-05-20T11:30:46.002Z,43.88
2023-05-20T11:35:55.038Z,43.63
2023-05-20T11:41:02.385Z,43.53
2023-05-20T11:46:11.913Z,43.19
2023-05-20T11:51:19.943Z,42.96
2023-05-20T11:56:27.615Z,42.63
2023-05-20T12:01:41.426Z,42.64
2023-05-20T12:06:50.172Z,42.90
2023-05-20T12:11:58.072Z,42.74
2023-05-20T12:17:05.537Z,42.61
2023-05-20T12:22:13.366Z,42.50
2023-05-20T12:27:21.331Z,42.34
2023-05-20T12:32:29.004Z,42.40
2023-05-20T12:37:37.751Z,42.50
2023-05-20T12:42:46.336Z,42.65
2023-05-20T12:47:56.348Z,42.44
2023-05-20T12:53:04.144Z,41.97
2023-05-20T12:58:12.101Z,41.68
2023-05-20T13:03:21.947Z,41.75
2023-05-20T13:08:30.363Z,41.76
2023-05-20T13:13:38.270Z,41.35
2023-05-20T13:18:46.160Z,41.20
2023-05-20T13:23:54.299Z,40.95
2023-05-20T13:29:02.279Z,40.76
2023-05-20T13:34:10.445Z,41.24
2023-05-20T13:39:19.188Z,40.78
2023-05-20T13:44:27.294Z,40.59
2023-05-20T13:49:36.137Z,40.39
2023-05-20T13:54:47.470Z,40.42
2023-05-20T13:59:55.584Z,40.33
2023-05-20T14:05:03.042Z,40.03
2023-05-20T14:10:12.438Z,40.03
2023-05-20T14:15:20.804Z,39.87
2023-05-20T14:20:28.243Z,39.74
2023-05-20T14:25:36.407Z,39.92
2023-05-20T14:30:44.051Z,40.07
2023-05-20T14:35:54.780Z,40.08
2023-05-20T14:41:02.412Z,40.00
2023-05-20T14:46:10.757Z,39.95
2023-05-20T14:51:18.562Z,39.91
2023-05-20T14:56:27.227Z,39.78
2023-05-20T15:01:35.768Z,39.61
2023-05-20T15:06:43.410Z,39.63
2023-05-20T15:11:51.210Z,39.82
2023-05-20T15:16:59.529Z,39.90
2023-05-20T15:22:07.448Z,39.87
2023-05-20T15:27:15.712Z,40.04
2023-05-20T15:32:23.734Z,40.09
2023-05-20T15:37:31.783Z,39.94
2023-05-20T15:42:43.591Z,39.91
2023-05-20T15:47:51.178Z,39.89
2023-05-20T15:52:59.356Z,39.83
2023-05-20T15:58:07.527Z,39.74
2023-05-20T16:03:15.635Z,39.72
2023-05-20T16:08:24.323Z,39.56
2023-05-20T16:13:32.312Z,39.63
2023-05-20T16:18:40.207Z,39.58
2023-05-20T16:23:48.975Z,39.75
2023-05-20T16:28:56.996Z,39.92
2023-05-20T16:34:05.362Z,39.96
2023-05-20T16:39:13.404Z,39.97
2023-05-20T16:44:21.324Z,40.23
2023-05-20T16:49:30.567Z,40.01
2023-05-20T16:54:38.230Z,40.16
2023-05-20T16:59:46.113Z,40.21
2023-05-20T17:04:54.790Z,40.28
2023-05-20T17:10:02.488Z,40.37
2023-05-20T17:15:11.820Z,40.49
2023-05-20T17:20:20.539Z,40.63
2023-05-20T17:25:28.437Z,40.71
2023-05-20T17:30:36.671Z,40.85
2023-05-20T17:35:44.839Z,40.90
2023-05-20T17:40:53.418Z,41.07
2023-05-20T17:46:01.386Z,41.29
2023-05-20T17:51:10.318Z,41.18
2023-05-20T17:56:18.143Z,41.25
2023-05-20T18:01:27.834Z,41.34
2023-05-20T18:06:36.544Z,41.63
2023-05-20T18:11:45.131Z,41.62
2023-05-20T18:16:53.773Z,41.84
2023-05-20T18:22:03.398Z,42.00
2023-05-20T18:27:12.076Z,41.98
2023-05-20T18:32:23.370Z,42.11
2023-05-20T18:37:31.393Z,42.29
2023-05-20T18:42:39.130Z,42.38
2023-05-20T18:47:47.335Z,42.71
2023-05-20T18:52:55.809Z,43.30
2023-05-20T18:58:03.558Z,43.75
2023-05-20T19:03:11.201Z,44.23
2023-05-20T19:08:19.120Z,44.76
2023-05-20T19:13:27.016Z,44.85
2023-05-20T19:18:34.739Z,45.11
2023-05-20T19:23:42.643Z,45.32
2023-05-20T19:28:51.164Z,45.74
2023-05-20T19:33:59.518Z,46.28
2023-05-20T19:39:08.383Z,46.50
2023-05-20T19:44:16.326Z,46.87
2023-05-20T19:49:24.750Z,47.14
2023-05-20T19:54:32.353Z,47.44
2023-05-20T19:59:39.999Z,47.69
2023-05-20T20:04:48.858Z,47.98
2023-05-20T20:09:56.871Z,48.41
2023-05-20T20:15:05.619Z,48.61
2023-05-20T20:20:15.640Z,49.05
2023-05-20T20:25:23.960Z,49.44
2023-05-20T20:30:31.581Z,49.71
2023-05-20T20:35:40.371Z,49.89
2023-05-20T20:40:48.295Z,50.19
2023-05-20T20:45:57.071Z,50.77
2023-05-20T20:51:05.861Z,51.27
2023-05-20T20:56:14.276Z,51.44
2023-05-20T21:01:21.995Z,51.81
2023-05-20T21:06:29.743Z,51.90
2023-05-20T21:11:42.998Z,51.97
2023-05-20T21:16:51.583Z,52.15
2023-05-20T21:22:00.061Z,52.19
2023-05-20T21:27:08.368Z,52.35
2023-05-20T21:32:17.139Z,52.65
2023-05-20T21:37:25.532Z,52.83
2023-05-20T21:42:33.896Z,52.85
2023-05-20T21:47:42.181Z,53.31
2023-05-20T21:52:50.444Z,53.75
2023-05-20T21:57:58.456Z,54.07
2023-05-20T22:03:06.727Z,54.14
2023-05-20T22:08:15.290Z,54.54
2023-05-20T22:13:27.082Z,54.63
2023-05-20T22:18:34.836Z,54.73
2023-05-20T22:23:42.948Z,55.05
2023-05-20T22:28:51.300Z,55.25
2023-05-20T22:33:59.345Z,55.54
2023-05-20T22:39:08.109Z,55.46
2023-05-20T22:44:16.106Z,55.54
2023-05-20T22:49:24.258Z,55.48
2023-05-20T22:54:32.336Z,55.58
2023-05-20T22:59:40.983Z,55.61
2023-05-20T23:04:48.589Z,55.42
2023-05-20T23:09:56.185Z,55.33
2023-05-20T23:15:03.877Z,55.34
2023-05-20T23:20:14.813Z,55.38
2023-05-20T23:25:22.576Z,55.58
2023-05-20T23:30:30.518Z,55.29
2023-05-20T23:35:39.110Z,55.26
2023-05-20T23:40:47.057Z,55.42
2023-05-20T23:45:55.197Z,55.23
2023-05-20T23:51:02.822Z,55.36
2023-05-20T23:56:11.112Z,55.43
